Terminal Aerodrome Forecast
Issued by NWS Shreveport, LA

Home | Current Version | Previous Version | Text Only | Print | Product List | Glossary On
Versions: 1 2 3 4 5 6 7 8 9 10 11 12 13 14 15 16 17 18 19 20 21 22 23 24
000
FTUS44 KSHV 261724
TAFLFK
TAF
KLFK 261724Z 2618/2718 15012G20KT P6SM SCT030
      TEMPO 2618/2621 15010KT OVC020
     FM270000 16010KT P6SM SCT040 BKN250
     FM270500 17010KT P6SM BKN020
      TEMPO 2709/2713 4SM BR OVC010
     FM271500 21008KT P6SM SCT035=

USA.gov is the U.S. government's official web portal to all federal, state and local government web resources and services.